sensor_id;sensor_type;location;lat;lon;timestamp;P1;durP1;ratioP1;P2;durP2;ratioP2
48627;SDS011;34424;52.234;6.500;2022-11-15T00:01:31;32.42;;;21.73;;
48627;SDS011;34424;52.234;6.500;2022-11-15T00:06:33;29.33;;;21.92;;
48627;SDS011;34424;52.234;6.500;2022-11-15T00:11:36;30.80;;;22.42;;
48627;SDS011;34424;52.234;6.500;2022-11-15T00:16:39;34.10;;;22.75;;
48627;SDS011;34424;52.234;6.500;2022-11-15T00:21:42;35.03;;;22.77;;
48627;SDS011;34424;52.234;6.500;2022-11-15T00:26:44;32.30;;;22.48;;
48627;SDS011;34424;52.234;6.500;2022-11-15T00:31:48;32.88;;;22.80;;
48627;SDS011;34424;52.234;6.500;2022-11-15T00:36:50;37.65;;;24.63;;
48627;SDS011;34424;52.234;6.500;2022-11-15T00:41:53;41.33;;;26.10;;
48627;SDS011;34424;52.234;6.500;2022-11-15T00:46:57;41.50;;;27.90;;
48627;SDS011;34424;52.234;6.500;2022-11-15T00:51:59;42.60;;;27.75;;
48627;SDS011;34424;52.234;6.500;2022-11-15T00:57:01;48.70;;;29.30;;
48627;SDS011;34424;52.234;6.500;2022-11-15T01:02:05;48.75;;;30.17;;
48627;SDS011;34424;52.234;6.500;2022-11-15T01:07:08;54.75;;;31.88;;
48627;SDS011;34424;52.234;6.500;2022-11-15T01:12:10;50.22;;;32.47;;
48627;SDS011;34424;52.234;6.500;2022-11-15T01:17:14;52.10;;;31.60;;
48627;SDS011;34424;52.234;6.500;2022-11-15T01:22:16;52.83;;;33.47;;
48627;SDS011;34424;52.234;6.500;2022-11-15T01:27:19;54.00;;;32.75;;
48627;SDS011;34424;52.234;6.500;2022-11-15T01:32:23;56.92;;;34.33;;
48627;SDS011;34424;52.234;6.500;2022-11-15T01:37:25;49.35;;;31.80;;
48627;SDS011;34424;52.234;6.500;2022-11-15T01:42:27;52.00;;;31.85;;
48627;SDS011;34424;52.234;6.500;2022-11-15T01:47:32;50.28;;;32.97;;
48627;SDS011;34424;52.234;6.500;2022-11-15T01:52:37;52.92;;;32.20;;
48627;SDS011;34424;52.234;6.500;2022-11-15T01:57:40;48.20;;;32.22;;
48627;SDS011;34424;52.234;6.500;2022-11-15T02:07:47;54.95;;;35.45;;
48627;SDS011;34424;52.234;6.500;2022-11-15T02:12:50;61.58;;;37.63;;
48627;SDS011;34424;52.234;6.500;2022-11-15T02:18:03;57.70;;;36.45;;
48627;SDS011;34424;52.234;6.500;2022-11-15T02:23:15;60.05;;;37.80;;
48627;SDS011;34424;52.234;6.500;2022-11-15T02:33:49;52.28;;;37.15;;
48627;SDS011;34424;52.234;6.500;2022-11-15T02:38:54;53.40;;;35.47;;
48627;SDS011;34424;52.234;6.500;2022-11-15T02:44:01;59.42;;;38.40;;
48627;SDS011;34424;52.234;6.500;2022-11-15T02:49:06;58.90;;;37.42;;
48627;SDS011;34424;52.234;6.500;2022-11-15T02:54:10;59.83;;;35.95;;
48627;SDS011;34424;52.234;6.500;2022-11-15T02:59:17;52.00;;;35.17;;
48627;SDS011;34424;52.234;6.500;2022-11-15T03:04:24;49.65;;;33.03;;
48627;SDS011;34424;52.234;6.500;2022-11-15T03:09:32;55.03;;;35.28;;
48627;SDS011;34424;52.234;6.500;2022-11-15T03:14:36;56.28;;;36.20;;
48627;SDS011;34424;52.234;6.500;2022-11-15T03:19:43;48.55;;;33.08;;
48627;SDS011;34424;52.234;6.500;2022-11-15T03:24:46;51.75;;;32.45;;
48627;SDS011;34424;52.234;6.500;2022-11-15T03:29:50;42.75;;;30.70;;
48627;SDS011;34424;52.234;6.500;2022-11-15T03:34:56;44.25;;;30.35;;
48627;SDS011;34424;52.234;6.500;2022-11-15T03:40:00;42.75;;;29.05;;
48627;SDS011;34424;52.234;6.500;2022-11-15T03:45:04;40.92;;;27.85;;
48627;SDS011;34424;52.234;6.500;2022-11-15T03:50:10;36.50;;;25.95;;
48627;SDS011;34424;52.234;6.500;2022-11-15T03:55:16;34.63;;;26.15;;
48627;SDS011;34424;52.234;6.500;2022-11-15T04:00:19;32.75;;;24.25;;
48627;SDS011;34424;52.234;6.500;2022-11-15T04:05:23;30.40;;;22.58;;
48627;SDS011;34424;52.234;6.500;2022-11-15T04:10:25;31.35;;;24.17;;
48627;SDS011;34424;52.234;6.500;2022-11-15T04:15:28;31.55;;;24.27;;
48627;SDS011;34424;52.234;6.500;2022-11-15T04:20:32;28.98;;;22.15;;
48627;SDS011;34424;52.234;6.500;2022-11-15T04:25:52;30.38;;;21.67;;
48627;SDS011;34424;52.234;6.500;2022-11-15T04:35:59;31.98;;;20.65;;
48627;SDS011;34424;52.234;6.500;2022-11-15T04:41:19;26.15;;;21.30;;
48627;SDS011;34424;52.234;6.500;2022-11-15T04:46:21;26.83;;;20.98;;
48627;SDS011;34424;52.234;6.500;2022-11-15T04:51:26;27.77;;;20.75;;
48627;SDS011;34424;52.234;6.500;2022-11-15T04:56:28;30.20;;;21.77;;
48627;SDS011;34424;52.234;6.500;2022-11-15T05:01:30;26.88;;;21.65;;
48627;SDS011;34424;52.234;6.500;2022-11-15T05:06:34;29.20;;;20.57;;
48627;SDS011;34424;52.234;6.500;2022-11-15T05:11:37;28.25;;;21.02;;
48627;SDS011;34424;52.234;6.500;2022-11-15T05:16:39;27.73;;;21.08;;
48627;SDS011;34424;52.234;6.500;2022-11-15T05:21:43;25.93;;;20.23;;
48627;SDS011;34424;52.234;6.500;2022-11-15T05:26:46;25.52;;;20.50;;
48627;SDS011;34424;52.234;6.500;2022-11-15T05:31:48;27.13;;;20.80;;
48627;SDS011;34424;52.234;6.500;2022-11-15T05:36:52;29.10;;;21.93;;
48627;SDS011;34424;52.234;6.500;2022-11-15T05:41:55;25.02;;;19.25;;
48627;SDS011;34424;52.234;6.500;2022-11-15T05:46:59;24.48;;;18.98;;
48627;SDS011;34424;52.234;6.500;2022-11-15T05:52:03;28.48;;;20.30;;
48627;SDS011;34424;52.234;6.500;2022-11-15T05:57:07;24.58;;;18.77;;
48627;SDS011;34424;52.234;6.500;2022-11-15T06:02:09;25.20;;;20.03;;
48627;SDS011;34424;52.234;6.500;2022-11-15T06:07:14;24.40;;;19.50;;
48627;SDS011;34424;52.234;6.500;2022-11-15T06:12:16;22.73;;;18.85;;
48627;SDS011;34424;52.234;6.500;2022-11-15T06:17:19;25.33;;;19.10;;
48627;SDS011;34424;52.234;6.500;2022-11-15T06:22:22;27.17;;;20.80;;
48627;SDS011;34424;52.234;6.500;2022-11-15T06:27:25;27.67;;;22.83;;
48627;SDS011;34424;52.234;6.500;2022-11-15T06:32:28;29.23;;;23.63;;
48627;SDS011;34424;52.234;6.500;2022-11-15T06:42:34;29.08;;;23.35;;
48627;SDS011;34424;52.234;6.500;2022-11-15T06:47:42;31.45;;;24.42;;
48627;SDS011;34424;52.234;6.500;2022-11-15T06:52:45;32.30;;;25.55;;
48627;SDS011;34424;52.234;6.500;2022-11-15T06:57:50;33.08;;;24.58;;
48627;SDS011;34424;52.234;6.500;2022-11-15T07:02:52;32.10;;;23.63;;
48627;SDS011;34424;52.234;6.500;2022-11-15T07:07:55;29.38;;;23.73;;
48627;SDS011;34424;52.234;6.500;2022-11-15T07:13:00;31.15;;;24.08;;
48627;SDS011;34424;52.234;6.500;2022-11-15T07:18:02;30.70;;;23.70;;
48627;SDS011;34424;52.234;6.500;2022-11-15T07:23:05;29.23;;;23.45;;
48627;SDS011;34424;52.234;6.500;2022-11-15T07:28:09;29.13;;;23.08;;
48627;SDS011;34424;52.234;6.500;2022-11-15T07:33:13;30.08;;;23.80;;
48627;SDS011;34424;52.234;6.500;2022-11-15T07:38:18;35.20;;;25.13;;
48627;SDS011;34424;52.234;6.500;2022-11-15T07:43:23;31.75;;;24.13;;
48627;SDS011;34424;52.234;6.500;2022-11-15T07:48:25;31.88;;;24.38;;
48627;SDS011;34424;52.234;6.500;2022-11-15T07:53:44;28.50;;;23.98;;
48627;SDS011;34424;52.234;6.500;2022-11-15T07:58:48;29.63;;;24.10;;
48627;SDS011;34424;52.234;6.500;2022-11-15T08:03:51;28.80;;;23.02;;
48627;SDS011;34424;52.234;6.500;2022-11-15T08:08:53;33.75;;;24.88;;
48627;SDS011;34424;52.234;6.500;2022-11-15T08:13:58;31.50;;;23.80;;
48627;SDS011;34424;52.234;6.500;2022-11-15T08:19:00;35.92;;;25.90;;
48627;SDS011;34424;52.234;6.500;2022-11-15T08:24:03;41.80;;;29.30;;
48627;SDS011;34424;52.234;6.500;2022-11-15T08:29:07;39.37;;;28.23;;
48627;SDS011;34424;52.234;6.500;2022-11-15T08:34:09;40.08;;;27.67;;
48627;SDS011;34424;52.234;6.500;2022-11-15T08:39:12;36.60;;;27.30;;
48627;SDS011;34424;52.234;6.500;2022-11-15T08:44:16;39.63;;;29.80;;
48627;SDS011;34424;52.234;6.500;2022-11-15T08:49:18;39.33;;;29.05;;
48627;SDS011;34424;52.234;6.500;2022-11-15T08:54:20;36.35;;;28.15;;
48627;SDS011;34424;52.234;6.500;2022-11-15T08:59:24;34.72;;;27.02;;
48627;SDS011;34424;52.234;6.500;2022-11-15T09:04:27;36.05;;;25.95;;
48627;SDS011;34424;52.234;6.500;2022-11-15T09:09:29;28.67;;;22.93;;
48627;SDS011;34424;52.234;6.500;2022-11-15T09:14:33;27.58;;;21.05;;
48627;SDS011;34424;52.234;6.500;2022-11-15T09:19:35;24.33;;;18.25;;
48627;SDS011;34424;52.234;6.500;2022-11-15T09:24:38;21.48;;;16.63;;
48627;SDS011;34424;52.234;6.500;2022-11-15T09:29:42;16.67;;;13.87;;
48627;SDS011;34424;52.234;6.500;2022-11-15T09:34:44;13.52;;;10.43;;
48627;SDS011;34424;52.234;6.500;2022-11-15T09:39:47;10.60;;;9.00;;
48627;SDS011;34424;52.234;6.500;2022-11-15T09:44:55;9.57;;;8.57;;
48627;SDS011;34424;52.234;6.500;2022-11-15T09:50:00;13.10;;;8.80;;
48627;SDS011;34424;52.234;6.500;2022-11-15T09:55:04;9.00;;;6.82;;
48627;SDS011;34424;52.234;6.500;2022-11-15T10:05:30;11.95;;;7.88;;
48627;SDS011;34424;52.234;6.500;2022-11-15T10:10:35;8.38;;;6.32;;
48627;SDS011;34424;52.234;6.500;2022-11-15T10:15:38;6.13;;;5.53;;
48627;SDS011;34424;52.234;6.500;2022-11-15T10:20:44;7.17;;;4.73;;
48627;SDS011;34424;52.234;6.500;2022-11-15T10:25:50;5.60;;;4.38;;
48627;SDS011;34424;52.234;6.500;2022-11-15T10:30:53;5.30;;;4.53;;
48627;SDS011;34424;52.234;6.500;2022-11-15T10:41:06;6.68;;;4.43;;
48627;SDS011;34424;52.234;6.500;2022-11-15T10:46:16;5.97;;;3.67;;
48627;SDS011;34424;52.234;6.500;2022-11-15T10:51:41;4.10;;;3.60;;
48627;SDS011;34424;52.234;6.500;2022-11-15T10:56:49;5.97;;;3.90;;
48627;SDS011;34424;52.234;6.500;2022-11-15T11:01:52;6.45;;;3.38;;
48627;SDS011;34424;52.234;6.500;2022-11-15T11:06:55;4.97;;;3.72;;
48627;SDS011;34424;52.234;6.500;2022-11-15T11:11:59;2.60;;;2.40;;
48627;SDS011;34424;52.234;6.500;2022-11-15T11:17:03;3.38;;;2.60;;
48627;SDS011;34424;52.234;6.500;2022-11-15T11:22:09;2.75;;;2.03;;
48627;SDS011;34424;52.234;6.500;2022-11-15T11:27:18;2.28;;;1.90;;
48627;SDS011;34424;52.234;6.500;2022-11-15T11:32:28;2.00;;;1.70;;
48627;SDS011;34424;52.234;6.500;2022-11-15T11:37:37;2.40;;;1.33;;
48627;SDS011;34424;52.234;6.500;2022-11-15T11:42:44;4.22;;;1.70;;
48627;SDS011;34424;52.234;6.500;2022-11-15T11:47:51;2.45;;;1.50;;
48627;SDS011;34424;52.234;6.500;2022-11-15T11:52:56;1.73;;;1.23;;
48627;SDS011;34424;52.234;6.500;2022-11-15T11:58:11;1.85;;;1.08;;
48627;SDS011;34424;52.234;6.500;2022-11-15T12:03:17;4.25;;;1.30;;
48627;SDS011;34424;52.234;6.500;2022-11-15T12:08:23;9.60;;;1.70;;
48627;SDS011;34424;52.234;6.500;2022-11-15T12:13:29;3.20;;;1.15;;
48627;SDS011;34424;52.234;6.500;2022-11-15T12:18:35;1.65;;;1.25;;
48627;SDS011;34424;52.234;6.500;2022-11-15T12:23:38;1.85;;;1.02;;
48627;SDS011;34424;52.234;6.500;2022-11-15T12:28:45;0.77;;;0.73;;
48627;SDS011;34424;52.234;6.500;2022-11-15T12:34:13;4.72;;;1.10;;
48627;SDS011;34424;52.234;6.500;2022-11-15T12:39:18;2.38;;;1.00;;
48627;SDS011;34424;52.234;6.500;2022-11-15T12:54:52;2.15;;;1.33;;
48627;SDS011;34424;52.234;6.500;2022-11-15T12:59:56;2.42;;;1.50;;
48627;SDS011;34424;52.234;6.500;2022-11-15T13:10:29;2.95;;;1.60;;
48627;SDS011;34424;52.234;6.500;2022-11-15T13:20:58;1.80;;;1.70;;
48627;SDS011;34424;52.234;6.500;2022-11-15T13:26:10;2.60;;;2.20;;
48627;SDS011;34424;52.234;6.500;2022-11-15T13:31:18;2.97;;;2.25;;
48627;SDS011;34424;52.234;6.500;2022-11-15T13:36:22;4.45;;;2.83;;
48627;SDS011;34424;52.234;6.500;2022-11-15T13:41:27;4.38;;;3.15;;
48627;SDS011;34424;52.234;6.500;2022-11-15T13:46:30;3.40;;;2.42;;
48627;SDS011;34424;52.234;6.500;2022-11-15T13:51:35;7.10;;;2.58;;
48627;SDS011;34424;52.234;6.500;2022-11-15T13:56:40;4.32;;;2.80;;
48627;SDS011;34424;52.234;6.500;2022-11-15T14:01:44;6.57;;;2.50;;
48627;SDS011;34424;52.234;6.500;2022-11-15T14:06:47;3.83;;;2.10;;
48627;SDS011;34424;52.234;6.500;2022-11-15T14:11:53;3.42;;;2.65;;
48627;SDS011;34424;52.234;6.500;2022-11-15T14:16:57;4.30;;;2.88;;
48627;SDS011;34424;52.234;6.500;2022-11-15T14:22:10;2.58;;;2.08;;
48627;SDS011;34424;52.234;6.500;2022-11-15T14:27:20;4.80;;;2.53;;
48627;SDS011;34424;52.234;6.500;2022-11-15T14:32:23;6.85;;;5.00;;
48627;SDS011;34424;52.234;6.500;2022-11-15T14:37:27;6.80;;;4.35;;
48627;SDS011;34424;52.234;6.500;2022-11-15T14:42:31;8.60;;;5.20;;
48627;SDS011;34424;52.234;6.500;2022-11-15T14:47:34;12.73;;;8.00;;
48627;SDS011;34424;52.234;6.500;2022-11-15T14:52:36;3.37;;;2.13;;
48627;SDS011;34424;52.234;6.500;2022-11-15T14:57:40;4.50;;;1.60;;
48627;SDS011;34424;52.234;6.500;2022-11-15T15:02:43;3.63;;;1.88;;
48627;SDS011;34424;52.234;6.500;2022-11-15T15:07:46;1.90;;;1.60;;
48627;SDS011;34424;52.234;6.500;2022-11-15T15:12:50;2.03;;;1.45;;
48627;SDS011;34424;52.234;6.500;2022-11-15T15:17:53;3.50;;;1.60;;
48627;SDS011;34424;52.234;6.500;2022-11-15T15:22:55;4.25;;;2.03;;
48627;SDS011;34424;52.234;6.500;2022-11-15T15:28:00;3.90;;;1.38;;
48627;SDS011;34424;52.234;6.500;2022-11-15T15:33:03;3.40;;;1.80;;
48627;SDS011;34424;52.234;6.500;2022-11-15T15:38:05;4.95;;;2.03;;
48627;SDS011;34424;52.234;6.500;2022-11-15T15:48:13;3.53;;;1.73;;
48627;SDS011;34424;52.234;6.500;2022-11-15T15:53:15;8.50;;;5.35;;
48627;SDS011;34424;52.234;6.500;2022-11-15T15:58:21;3.10;;;1.60;;
48627;SDS011;34424;52.234;6.500;2022-11-15T16:03:25;2.33;;;1.65;;
48627;SDS011;34424;52.234;6.500;2022-11-15T16:08:28;3.00;;;1.30;;
48627;SDS011;34424;52.234;6.500;2022-11-15T16:13:48;2.10;;;1.40;;
48627;SDS011;34424;52.234;6.500;2022-11-15T16:18:51;5.23;;;1.90;;
48627;SDS011;34424;52.234;6.500;2022-11-15T16:23:54;11.32;;;7.70;;
48627;SDS011;34424;52.234;6.500;2022-11-15T16:28:57;3.43;;;2.33;;
48627;SDS011;34424;52.234;6.500;2022-11-15T16:34:01;2.10;;;1.90;;
48627;SDS011;34424;52.234;6.500;2022-11-15T16:39:03;5.00;;;2.22;;
48627;SDS011;34424;52.234;6.500;2022-11-15T16:44:06;5.03;;;2.77;;
48627;SDS011;34424;52.234;6.500;2022-11-15T16:49:12;3.53;;;1.77;;
48627;SDS011;34424;52.234;6.500;2022-11-15T16:54:15;6.43;;;3.90;;
48627;SDS011;34424;52.234;6.500;2022-11-15T16:59:17;2.43;;;1.77;;
48627;SDS011;34424;52.234;6.500;2022-11-15T17:04:22;3.03;;;1.80;;
48627;SDS011;34424;52.234;6.500;2022-11-15T17:09:24;2.58;;;2.05;;
48627;SDS011;34424;52.234;6.500;2022-11-15T17:14:27;3.60;;;2.10;;
48627;SDS011;34424;52.234;6.500;2022-11-15T17:19:31;4.07;;;1.90;;
48627;SDS011;34424;52.234;6.500;2022-11-15T17:24:33;2.63;;;2.42;;
48627;SDS011;34424;52.234;6.500;2022-11-15T17:29:35;4.05;;;3.58;;
48627;SDS011;34424;52.234;6.500;2022-11-15T17:34:39;3.55;;;3.17;;
48627;SDS011;34424;52.234;6.500;2022-11-15T17:39:42;3.13;;;2.20;;
48627;SDS011;34424;52.234;6.500;2022-11-15T17:44:44;2.40;;;1.98;;
48627;SDS011;34424;52.234;6.500;2022-11-15T17:49:48;3.05;;;2.28;;
48627;SDS011;34424;52.234;6.500;2022-11-15T17:54:50;4.18;;;2.28;;
48627;SDS011;34424;52.234;6.500;2022-11-15T17:59:53;2.45;;;2.13;;
48627;SDS011;34424;52.234;6.500;2022-11-15T18:04:57;5.03;;;3.00;;
48627;SDS011;34424;52.234;6.500;2022-11-15T18:09:59;4.63;;;2.38;;
48627;SDS011;34424;52.234;6.500;2022-11-15T18:15:02;5.53;;;2.80;;
48627;SDS011;34424;52.234;6.500;2022-11-15T18:20:06;4.27;;;2.40;;
48627;SDS011;34424;52.234;6.500;2022-11-15T18:25:10;2.90;;;2.25;;
48627;SDS011;34424;52.234;6.500;2022-11-15T18:30:16;4.55;;;3.15;;
48627;SDS011;34424;52.234;6.500;2022-11-15T18:35:19;4.00;;;3.20;;
48627;SDS011;34424;52.234;6.500;2022-11-15T18:40:22;3.42;;;3.08;;
48627;SDS011;34424;52.234;6.500;2022-11-15T18:45:24;9.67;;;2.63;;
48627;SDS011;34424;52.234;6.500;2022-11-15T18:50:28;8.15;;;5.85;;
48627;SDS011;34424;52.234;6.500;2022-11-15T18:55:31;10.60;;;6.40;;
48627;SDS011;34424;52.234;6.500;2022-11-15T19:00:33;13.45;;;8.50;;
48627;SDS011;34424;52.234;6.500;2022-11-15T19:05:37;8.40;;;5.07;;
48627;SDS011;34424;52.234;6.500;2022-11-15T19:10:40;3.25;;;2.90;;
48627;SDS011;34424;52.234;6.500;2022-11-15T19:15:42;4.77;;;4.27;;
48627;SDS011;34424;52.234;6.500;2022-11-15T19:20:46;5.00;;;3.50;;
48627;SDS011;34424;52.234;6.500;2022-11-15T19:25:52;5.85;;;2.95;;
48627;SDS011;34424;52.234;6.500;2022-11-15T19:31:01;4.05;;;2.78;;
48627;SDS011;34424;52.234;6.500;2022-11-15T19:36:06;4.35;;;3.95;;
48627;SDS011;34424;52.234;6.500;2022-11-15T19:41:09;5.63;;;4.85;;
48627;SDS011;34424;52.234;6.500;2022-11-15T19:51:16;4.45;;;4.00;;
48627;SDS011;34424;52.234;6.500;2022-11-15T19:56:19;5.55;;;3.85;;
48627;SDS011;34424;52.234;6.500;2022-11-15T20:01:22;3.95;;;3.47;;
48627;SDS011;34424;52.234;6.500;2022-11-15T20:06:27;3.95;;;3.55;;
48627;SDS011;34424;52.234;6.500;2022-11-15T20:11:30;3.78;;;3.35;;
48627;SDS011;34424;52.234;6.500;2022-11-15T20:16:34;3.60;;;3.20;;
48627;SDS011;34424;52.234;6.500;2022-11-15T20:21:38;7.87;;;3.33;;
48627;SDS011;34424;52.234;6.500;2022-11-15T20:26:40;4.68;;;4.10;;
48627;SDS011;34424;52.234;6.500;2022-11-15T20:36:47;5.72;;;4.38;;
48627;SDS011;34424;52.234;6.500;2022-11-15T20:41:50;6.80;;;5.50;;
48627;SDS011;34424;52.234;6.500;2022-11-15T20:46:52;5.63;;;4.15;;
48627;SDS011;34424;52.234;6.500;2022-11-15T20:51:56;5.00;;;3.67;;
48627;SDS011;34424;52.234;6.500;2022-11-15T20:56:58;7.15;;;4.28;;
48627;SDS011;34424;52.234;6.500;2022-11-15T21:02:01;5.85;;;4.78;;
48627;SDS011;34424;52.234;6.500;2022-11-15T21:07:05;5.30;;;4.53;;
48627;SDS011;34424;52.234;6.500;2022-11-15T21:12:08;5.78;;;4.90;;
48627;SDS011;34424;52.234;6.500;2022-11-15T21:17:12;7.57;;;5.38;;
48627;SDS011;34424;52.234;6.500;2022-11-15T21:22:16;6.60;;;5.40;;
48627;SDS011;34424;52.234;6.500;2022-11-15T21:27:19;6.00;;;5.35;;
48627;SDS011;34424;52.234;6.500;2022-11-15T21:32:21;7.53;;;5.97;;
48627;SDS011;34424;52.234;6.500;2022-11-15T21:37:25;8.07;;;6.60;;
48627;SDS011;34424;52.234;6.500;2022-11-15T21:42:27;9.05;;;6.07;;
48627;SDS011;34424;52.234;6.500;2022-11-15T21:47:30;9.07;;;6.15;;
48627;SDS011;34424;52.234;6.500;2022-11-15T21:52:33;6.50;;;5.88;;
48627;SDS011;34424;52.234;6.500;2022-11-15T21:57:36;9.32;;;6.90;;
48627;SDS011;34424;52.234;6.500;2022-11-15T22:02:38;7.78;;;6.38;;
48627;SDS011;34424;52.234;6.500;2022-11-15T22:07:42;7.60;;;6.80;;
48627;SDS011;34424;52.234;6.500;2022-11-15T22:12:45;9.05;;;7.20;;
48627;SDS011;34424;52.234;6.500;2022-11-15T22:17:47;9.90;;;6.90;;
48627;SDS011;34424;52.234;6.500;2022-11-15T22:23:03;10.18;;;7.50;;
48627;SDS011;34424;52.234;6.500;2022-11-15T22:28:05;9.23;;;8.05;;
48627;SDS011;34424;52.234;6.500;2022-11-15T22:33:08;11.43;;;8.38;;
48627;SDS011;34424;52.234;6.500;2022-11-15T22:38:12;10.87;;;9.63;;
48627;SDS011;34424;52.234;6.500;2022-11-15T22:43:15;12.45;;;8.80;;
48627;SDS011;34424;52.234;6.500;2022-11-15T22:48:18;9.10;;;7.90;;
48627;SDS011;34424;52.234;6.500;2022-11-15T22:53:22;11.35;;;8.70;;
48627;SDS011;34424;52.234;6.500;2022-11-15T22:58:25;12.90;;;9.23;;
48627;SDS011;34424;52.234;6.500;2022-11-15T23:03:28;12.02;;;9.15;;
48627;SDS011;34424;52.234;6.500;2022-11-15T23:08:32;11.70;;;9.33;;
48627;SDS011;34424;52.234;6.500;2022-11-15T23:13:35;11.13;;;8.13;;
48627;SDS011;34424;52.234;6.500;2022-11-15T23:18:38;11.40;;;9.55;;
48627;SDS011;34424;52.234;6.500;2022-11-15T23:23:43;10.70;;;9.60;;
48627;SDS011;34424;52.234;6.500;2022-11-15T23:28:46;10.80;;;8.93;;
48627;SDS011;34424;52.234;6.500;2022-11-15T23:33:49;10.00;;;8.63;;
48627;SDS011;34424;52.234;6.500;2022-11-15T23:39:02;9.65;;;8.18;;
48627;SDS011;34424;52.234;6.500;2022-11-15T23:44:05;11.25;;;9.20;;
48627;SDS011;34424;52.234;6.500;2022-11-15T23:49:07;11.10;;;9.50;;
48627;SDS011;34424;52.234;6.500;2022-11-15T23:54:11;11.77;;;10.07;;
48627;SDS011;34424;52.234;6.500;2022-11-15T23:59:13;11.43;;;9.98;;
